sensor_id;sensor_type;location;lat;lon;timestamp;temperature;humidity
5134;DHT22;2585;48.696;10.066;2023-05-13T00:00:36;9.40;90.70
5134;DHT22;2585;48.696;10.066;2023-05-13T00:03:03;9.40;90.70
5134;DHT22;2585;48.696;10.066;2023-05-13T00:05:30;9.40;90.70
5134;DHT22;2585;48.696;10.066;2023-05-13T00:07:57;9.40;90.70
5134;DHT22;2585;48.696;10.066;2023-05-13T00:10:27;9.40;90.60
5134;DHT22;2585;48.696;10.066;2023-05-13T00:12:54;9.40;90.60
5134;DHT22;2585;48.696;10.066;2023-05-13T00:15:21;9.40;90.60
5134;DHT22;2585;48.696;10.066;2023-05-13T00:17:48;9.40;90.60
5134;DHT22;2585;48.696;10.066;2023-05-13T00:20:14;9.40;90.60
5134;DHT22;2585;48.696;10.066;2023-05-13T00:22:41;9.40;90.60
5134;DHT22;2585;48.696;10.066;2023-05-13T00:25:08;9.40;90.60
5134;DHT22;2585;48.696;10.066;2023-05-13T00:27:36;9.40;90.60
5134;DHT22;2585;48.696;10.066;2023-05-13T00:30:03;9.40;90.60
5134;DHT22;2585;48.696;10.066;2023-05-13T00:32:31;9.40;90.50
5134;DHT22;2585;48.696;10.066;2023-05-13T00:34:57;9.40;90.50
5134;DHT22;2585;48.696;10.066;2023-05-13T00:37:24;9.40;90.50
5134;DHT22;2585;48.696;10.066;2023-05-13T00:39:51;9.30;90.50
5134;DHT22;2585;48.696;10.066;2023-05-13T00:42:18;9.30;90.40
5134;DHT22;2585;48.696;10.066;2023-05-13T00:44:45;9.30;90.40
5134;DHT22;2585;48.696;10.066;2023-05-13T00:47:12;9.30;90.40
5134;DHT22;2585;48.696;10.066;2023-05-13T00:49:39;9.20;90.40
5134;DHT22;2585;48.696;10.066;2023-05-13T00:52:05;9.20;90.40
5134;DHT22;2585;48.696;10.066;2023-05-13T00:54:32;9.20;90.30
5134;DHT22;2585;48.696;10.066;2023-05-13T00:56:59;9.20;90.30
5134;DHT22;2585;48.696;10.066;2023-05-13T00:59:28;9.20;90.30
5134;DHT22;2585;48.696;10.066;2023-05-13T01:02:08;9.10;90.20
5134;DHT22;2585;48.696;10.066;2023-05-13T01:10:03;9.10;90.10
5134;DHT22;2585;48.696;10.066;2023-05-13T01:12:35;9.10;90.10
5134;DHT22;2585;48.696;10.066;2023-05-13T01:15:18;9.10;90.20
5134;DHT22;2585;48.696;10.066;2023-05-13T01:17:52;9.00;90.10
5134;DHT22;2585;48.696;10.066;2023-05-13T01:20:21;9.00;90.10
5134;DHT22;2585;48.696;10.066;2023-05-13T01:22:49;9.00;90.10
5134;DHT22;2585;48.696;10.066;2023-05-13T01:25:17;9.00;90.00
5134;DHT22;2585;48.696;10.066;2023-05-13T01:27:44;9.00;90.00
5134;DHT22;2585;48.696;10.066;2023-05-13T01:30:11;9.00;90.00
5134;DHT22;2585;48.696;10.066;2023-05-13T01:32:38;9.00;90.00
5134;DHT22;2585;48.696;10.066;2023-05-13T01:35:06;9.00;90.00
5134;DHT22;2585;48.696;10.066;2023-05-13T01:37:35;9.00;90.00
5134;DHT22;2585;48.696;10.066;2023-05-13T01:40:04;9.00;90.00
5134;DHT22;2585;48.696;10.066;2023-05-13T01:42:50;9.00;90.00
5134;DHT22;2585;48.696;10.066;2023-05-13T01:45:17;8.90;90.00
5134;DHT22;2585;48.696;10.066;2023-05-13T01:47:44;8.90;89.90
5134;DHT22;2585;48.696;10.066;2023-05-13T01:50:11;8.90;89.80
5134;DHT22;2585;48.696;10.066;2023-05-13T01:52:38;9.00;89.90
5134;DHT22;2585;48.696;10.066;2023-05-13T01:55:05;8.90;89.70
5134;DHT22;2585;48.696;10.066;2023-05-13T01:57:31;9.00;89.70
5134;DHT22;2585;48.696;10.066;2023-05-13T01:59:58;8.90;89.70
5134;DHT22;2585;48.696;10.066;2023-05-13T02:02:25;8.90;89.80
5134;DHT22;2585;48.696;10.066;2023-05-13T02:04:52;8.90;89.90
5134;DHT22;2585;48.696;10.066;2023-05-13T02:07:19;8.90;90.00
5134;DHT22;2585;48.696;10.066;2023-05-13T02:09:46;8.90;90.00
5134;DHT22;2585;48.696;10.066;2023-05-13T02:12:13;8.90;89.90
5134;DHT22;2585;48.696;10.066;2023-05-13T02:14:40;8.90;89.90
5134;DHT22;2585;48.696;10.066;2023-05-13T02:17:07;8.90;90.00
5134;DHT22;2585;48.696;10.066;2023-05-13T02:19:33;8.90;90.00
5134;DHT22;2585;48.696;10.066;2023-05-13T02:22:00;8.90;90.00
5134;DHT22;2585;48.696;10.066;2023-05-13T02:24:29;8.90;90.00
5134;DHT22;2585;48.696;10.066;2023-05-13T02:26:56;8.90;90.00
5134;DHT22;2585;48.696;10.066;2023-05-13T02:29:23;8.90;90.00
5134;DHT22;2585;48.696;10.066;2023-05-13T02:31:49;8.90;89.90
5134;DHT22;2585;48.696;10.066;2023-05-13T02:34:16;8.90;89.90
5134;DHT22;2585;48.696;10.066;2023-05-13T02:36:43;8.90;89.70
5134;DHT22;2585;48.696;10.066;2023-05-13T02:39:10;8.90;89.70
5134;DHT22;2585;48.696;10.066;2023-05-13T02:41:37;8.90;89.60
5134;DHT22;2585;48.696;10.066;2023-05-13T02:44:04;8.90;89.60
5134;DHT22;2585;48.696;10.066;2023-05-13T02:46:31;8.80;89.50
5134;DHT22;2585;48.696;10.066;2023-05-13T02:48:58;8.80;89.50
5134;DHT22;2585;48.696;10.066;2023-05-13T02:51:25;8.80;89.40
5134;DHT22;2585;48.696;10.066;2023-05-13T02:53:52;8.80;89.40
5134;DHT22;2585;48.696;10.066;2023-05-13T02:56:19;8.80;89.50
5134;DHT22;2585;48.696;10.066;2023-05-13T02:58:46;8.80;89.40
5134;DHT22;2585;48.696;10.066;2023-05-13T03:01:13;8.70;89.40
5134;DHT22;2585;48.696;10.066;2023-05-13T03:03:40;8.70;89.40
5134;DHT22;2585;48.696;10.066;2023-05-13T03:06:07;8.70;89.40
5134;DHT22;2585;48.696;10.066;2023-05-13T03:08:33;8.70;89.30
5134;DHT22;2585;48.696;10.066;2023-05-13T03:11:00;8.70;89.20
5134;DHT22;2585;48.696;10.066;2023-05-13T03:13:27;8.70;89.30
5134;DHT22;2585;48.696;10.066;2023-05-13T03:15:54;8.70;89.40
5134;DHT22;2585;48.696;10.066;2023-05-13T03:18:20;8.70;89.40
5134;DHT22;2585;48.696;10.066;2023-05-13T03:20:47;8.70;89.50
5134;DHT22;2585;48.696;10.066;2023-05-13T03:23:14;8.70;89.50
5134;DHT22;2585;48.696;10.066;2023-05-13T03:25:41;8.70;89.50
5134;DHT22;2585;48.696;10.066;2023-05-13T03:28:08;8.70;89.50
5134;DHT22;2585;48.696;10.066;2023-05-13T03:30:34;8.70;89.50
5134;DHT22;2585;48.696;10.066;2023-05-13T03:33:01;8.70;89.40
5134;DHT22;2585;48.696;10.066;2023-05-13T03:35:28;8.70;89.40
5134;DHT22;2585;48.696;10.066;2023-05-13T03:37:55;8.70;89.30
5134;DHT22;2585;48.696;10.066;2023-05-13T03:40:22;8.60;89.20
5134;DHT22;2585;48.696;10.066;2023-05-13T03:42:49;8.60;89.30
5134;DHT22;2585;48.696;10.066;2023-05-13T03:45:16;8.60;89.30
5134;DHT22;2585;48.696;10.066;2023-05-13T03:47:43;8.60;89.30
5134;DHT22;2585;48.696;10.066;2023-05-13T03:50:09;8.60;89.20
5134;DHT22;2585;48.696;10.066;2023-05-13T03:52:37;8.60;89.10
5134;DHT22;2585;48.696;10.066;2023-05-13T03:55:04;8.60;89.10
5134;DHT22;2585;48.696;10.066;2023-05-13T03:57:31;8.60;89.30
5134;DHT22;2585;48.696;10.066;2023-05-13T03:59:58;8.60;89.30
5134;DHT22;2585;48.696;10.066;2023-05-13T04:02:25;8.60;89.10
5134;DHT22;2585;48.696;10.066;2023-05-13T04:04:52;8.60;89.00
5134;DHT22;2585;48.696;10.066;2023-05-13T04:07:19;8.60;88.90
5134;DHT22;2585;48.696;10.066;2023-05-13T04:09:45;8.50;88.80
5134;DHT22;2585;48.696;10.066;2023-05-13T04:12:12;8.60;88.80
5134;DHT22;2585;48.696;10.066;2023-05-13T04:14:40;8.50;88.70
5134;DHT22;2585;48.696;10.066;2023-05-13T04:17:06;8.50;88.50
5134;DHT22;2585;48.696;10.066;2023-05-13T04:19:33;8.50;88.30
5134;DHT22;2585;48.696;10.066;2023-05-13T04:22:00;8.50;88.40
5134;DHT22;2585;48.696;10.066;2023-05-13T04:24:27;8.60;88.60
5134;DHT22;2585;48.696;10.066;2023-05-13T04:26:53;8.60;88.50
5134;DHT22;2585;48.696;10.066;2023-05-13T04:29:20;8.50;88.10
5134;DHT22;2585;48.696;10.066;2023-05-13T04:31:47;8.60;88.10
5134;DHT22;2585;48.696;10.066;2023-05-13T04:34:14;8.50;88.10
5134;DHT22;2585;48.696;10.066;2023-05-13T04:36:41;8.60;88.10
5134;DHT22;2585;48.696;10.066;2023-05-13T04:39:08;8.60;87.90
5134;DHT22;2585;48.696;10.066;2023-05-13T04:41:35;8.60;87.70
5134;DHT22;2585;48.696;10.066;2023-05-13T04:44:02;8.60;87.60
5134;DHT22;2585;48.696;10.066;2023-05-13T04:46:31;8.60;87.80
5134;DHT22;2585;48.696;10.066;2023-05-13T04:48:58;8.60;87.70
5134;DHT22;2585;48.696;10.066;2023-05-13T04:51:25;8.60;87.50
5134;DHT22;2585;48.696;10.066;2023-05-13T04:53:52;8.60;87.20
5134;DHT22;2585;48.696;10.066;2023-05-13T04:56:19;8.60;87.20
5134;DHT22;2585;48.696;10.066;2023-05-13T04:58:47;8.70;87.20
5134;DHT22;2585;48.696;10.066;2023-05-13T05:01:14;8.70;87.20
5134;DHT22;2585;48.696;10.066;2023-05-13T05:03:41;8.70;86.60
5134;DHT22;2585;48.696;10.066;2023-05-13T05:06:08;8.70;86.40
5134;DHT22;2585;48.696;10.066;2023-05-13T05:08:34;8.70;86.10
5134;DHT22;2585;48.696;10.066;2023-05-13T05:11:01;8.70;85.70
5134;DHT22;2585;48.696;10.066;2023-05-13T05:13:28;8.70;85.70
5134;DHT22;2585;48.696;10.066;2023-05-13T05:15:55;8.70;86.00
5134;DHT22;2585;48.696;10.066;2023-05-13T05:18:21;8.70;85.90
5134;DHT22;2585;48.696;10.066;2023-05-13T05:20:48;8.70;85.50
5134;DHT22;2585;48.696;10.066;2023-05-13T05:23:15;8.70;85.30
5134;DHT22;2585;48.696;10.066;2023-05-13T05:25:42;8.70;85.20
5134;DHT22;2585;48.696;10.066;2023-05-13T05:28:08;8.70;85.00
5134;DHT22;2585;48.696;10.066;2023-05-13T05:30:35;8.80;84.90
5134;DHT22;2585;48.696;10.066;2023-05-13T05:33:06;8.80;84.70
5134;DHT22;2585;48.696;10.066;2023-05-13T05:35:33;8.80;84.80
5134;DHT22;2585;48.696;10.066;2023-05-13T05:38:04;8.80;84.50
5134;DHT22;2585;48.696;10.066;2023-05-13T05:40:31;8.80;84.20
5134;DHT22;2585;48.696;10.066;2023-05-13T05:42:58;8.80;83.70
5134;DHT22;2585;48.696;10.066;2023-05-13T05:45:25;8.90;84.10
5134;DHT22;2585;48.696;10.066;2023-05-13T05:47:52;8.80;83.90
5134;DHT22;2585;48.696;10.066;2023-05-13T05:50:20;8.80;83.90
5134;DHT22;2585;48.696;10.066;2023-05-13T05:52:48;8.90;84.10
5134;DHT22;2585;48.696;10.066;2023-05-13T05:55:15;8.90;83.90
5134;DHT22;2585;48.696;10.066;2023-05-13T05:57:41;8.90;83.90
5134;DHT22;2585;48.696;10.066;2023-05-13T06:00:08;9.00;83.80
5134;DHT22;2585;48.696;10.066;2023-05-13T06:02:36;9.00;83.80
5134;DHT22;2585;48.696;10.066;2023-05-13T06:05:03;9.10;83.60
5134;DHT22;2585;48.696;10.066;2023-05-13T06:07:30;9.10;83.70
5134;DHT22;2585;48.696;10.066;2023-05-13T06:09:56;9.20;83.70
5134;DHT22;2585;48.696;10.066;2023-05-13T06:12:23;9.20;83.50
5134;DHT22;2585;48.696;10.066;2023-05-13T06:14:50;9.30;82.80
5134;DHT22;2585;48.696;10.066;2023-05-13T06:17:17;9.30;81.70
5134;DHT22;2585;48.696;10.066;2023-05-13T06:19:44;9.40;81.80
5134;DHT22;2585;48.696;10.066;2023-05-13T06:22:10;9.40;81.30
5134;DHT22;2585;48.696;10.066;2023-05-13T06:24:37;9.40;80.60
5134;DHT22;2585;48.696;10.066;2023-05-13T06:27:04;9.40;78.90
5134;DHT22;2585;48.696;10.066;2023-05-13T06:29:31;9.40;78.00
5134;DHT22;2585;48.696;10.066;2023-05-13T06:32:01;9.50;78.50
5134;DHT22;2585;48.696;10.066;2023-05-13T06:34:28;9.50;78.30
5134;DHT22;2585;48.696;10.066;2023-05-13T06:36:55;9.60;78.40
5134;DHT22;2585;48.696;10.066;2023-05-13T06:39:21;9.60;78.10
5134;DHT22;2585;48.696;10.066;2023-05-13T06:41:48;9.60;76.00
5134;DHT22;2585;48.696;10.066;2023-05-13T06:44:15;9.60;75.40
5134;DHT22;2585;48.696;10.066;2023-05-13T06:46:41;9.70;73.20
5134;DHT22;2585;48.696;10.066;2023-05-13T06:49:08;9.80;73.50
5134;DHT22;2585;48.696;10.066;2023-05-13T06:51:35;9.80;71.30
5134;DHT22;2585;48.696;10.066;2023-05-13T06:54:02;9.80;70.30
5134;DHT22;2585;48.696;10.066;2023-05-13T06:56:29;9.80;70.40
5134;DHT22;2585;48.696;10.066;2023-05-13T06:58:56;9.90;69.60
5134;DHT22;2585;48.696;10.066;2023-05-13T07:01:22;9.90;67.30
5134;DHT22;2585;48.696;10.066;2023-05-13T07:03:49;10.00;66.70
5134;DHT22;2585;48.696;10.066;2023-05-13T07:06:16;10.20;67.50
5134;DHT22;2585;48.696;10.066;2023-05-13T07:08:43;10.30;64.50
5134;DHT22;2585;48.696;10.066;2023-05-13T07:11:10;10.30;61.10
5134;DHT22;2585;48.696;10.066;2023-05-13T07:13:36;10.30;50.60
5134;DHT22;2585;48.696;10.066;2023-05-13T07:16:04;10.40;49.50
5134;DHT22;2585;48.696;10.066;2023-05-13T07:18:31;10.40;43.70
5134;DHT22;2585;48.696;10.066;2023-05-13T07:20:58;10.50;47.80
5134;DHT22;2585;48.696;10.066;2023-05-13T07:23:25;10.50;43.80
5134;DHT22;2585;48.696;10.066;2023-05-13T07:25:51;10.40;16.60
5134;DHT22;2585;48.696;10.066;2023-05-13T07:28:18;10.40;12.20
5134;DHT22;2585;48.696;10.066;2023-05-13T07:30:46;10.30;10.80
5134;DHT22;2585;48.696;10.066;2023-05-13T07:33:13;10.30;20.50
5134;DHT22;2585;48.696;10.066;2023-05-13T07:35:40;10.20;12.70
5134;DHT22;2585;48.696;10.066;2023-05-13T07:38:08;10.20;16.60
5134;DHT22;2585;48.696;10.066;2023-05-13T07:40:36;10.20;21.20
5134;DHT22;2585;48.696;10.066;2023-05-13T07:43:03;10.30;21.70
5134;DHT22;2585;48.696;10.066;2023-05-13T07:45:30;10.30;10.90
5134;DHT22;2585;48.696;10.066;2023-05-13T07:47:57;10.20;16.00
5134;DHT22;2585;48.696;10.066;2023-05-13T07:50:24;10.20;19.80
5134;DHT22;2585;48.696;10.066;2023-05-13T07:52:51;10.30;16.40
5134;DHT22;2585;48.696;10.066;2023-05-13T07:55:18;10.40;13.20
5134;DHT22;2585;48.696;10.066;2023-05-13T07:57:45;10.40;1.00
5134;DHT22;2585;48.696;10.066;2023-05-13T08:00:13;10.40;1.00
5134;DHT22;2585;48.696;10.066;2023-05-13T08:02:41;10.50;1.00
5134;DHT22;2585;48.696;10.066;2023-05-13T08:05:09;10.50;1.00
5134;DHT22;2585;48.696;10.066;2023-05-13T08:07:36;10.50;1.00
5134;DHT22;2585;48.696;10.066;2023-05-13T08:10:04;10.50;1.00
5134;DHT22;2585;48.696;10.066;2023-05-13T08:12:31;10.40;1.00
5134;DHT22;2585;48.696;10.066;2023-05-13T08:14:59;10.40;1.00
5134;DHT22;2585;48.696;10.066;2023-05-13T08:17:25;10.40;1.00
5134;DHT22;2585;48.696;10.066;2023-05-13T08:19:52;10.40;1.00
5134;DHT22;2585;48.696;10.066;2023-05-13T08:22:19;10.40;1.00
5134;DHT22;2585;48.696;10.066;2023-05-13T08:24:46;10.50;1.00
5134;DHT22;2585;48.696;10.066;2023-05-13T08:27:13;10.50;1.00
5134;DHT22;2585;48.696;10.066;2023-05-13T08:29:40;10.50;1.00
5134;DHT22;2585;48.696;10.066;2023-05-13T08:32:06;10.50;1.00
5134;DHT22;2585;48.696;10.066;2023-05-13T08:34:33;10.40;1.00
5134;DHT22;2585;48.696;10.066;2023-05-13T08:37:00;10.50;1.00
5134;DHT22;2585;48.696;10.066;2023-05-13T08:39:27;10.60;1.00
5134;DHT22;2585;48.696;10.066;2023-05-13T08:41:55;10.80;1.00
5134;DHT22;2585;48.696;10.066;2023-05-13T08:44:24;11.00;1.00
5134;DHT22;2585;48.696;10.066;2023-05-13T08:49:39;10.90;1.00
5134;DHT22;2585;48.696;10.066;2023-05-13T08:52:06;11.00;1.00
5134;DHT22;2585;48.696;10.066;2023-05-13T08:54:34;11.00;1.00
5134;DHT22;2585;48.696;10.066;2023-05-13T08:57:01;11.00;91.90
5134;DHT22;2585;48.696;10.066;2023-05-13T08:59:29;11.10;92.00
5134;DHT22;2585;48.696;10.066;2023-05-13T09:01:55;11.30;91.20
5134;DHT22;2585;48.696;10.066;2023-05-13T09:04:23;11.50;71.80
5134;DHT22;2585;48.696;10.066;2023-05-13T09:06:50;11.50;70.00
5134;DHT22;2585;48.696;10.066;2023-05-13T09:09:17;11.30;63.50
5134;DHT22;2585;48.696;10.066;2023-05-13T09:11:48;11.40;67.30
5134;DHT22;2585;48.696;10.066;2023-05-13T09:14:18;11.30;67.30
5134;DHT22;2585;48.696;10.066;2023-05-13T09:16:46;11.20;62.10
5134;DHT22;2585;48.696;10.066;2023-05-13T09:19:13;11.20;48.30
5134;DHT22;2585;48.696;10.066;2023-05-13T09:21:42;11.20;50.80
5134;DHT22;2585;48.696;10.066;2023-05-13T09:24:12;11.20;70.20
5134;DHT22;2585;48.696;10.066;2023-05-13T09:26:44;11.30;78.40
5134;DHT22;2585;48.696;10.066;2023-05-13T09:29:23;11.30;68.40
5134;DHT22;2585;48.696;10.066;2023-05-13T09:31:54;11.20;63.90
5134;DHT22;2585;48.696;10.066;2023-05-13T09:34:26;11.20;79.20
5134;DHT22;2585;48.696;10.066;2023-05-13T09:37:05;11.20;63.40
5134;DHT22;2585;48.696;10.066;2023-05-13T09:39:36;11.10;68.80
5134;DHT22;2585;48.696;10.066;2023-05-13T09:42:04;11.10;72.50
5134;DHT22;2585;48.696;10.066;2023-05-13T09:44:32;11.10;74.30
5134;DHT22;2585;48.696;10.066;2023-05-13T09:46:59;11.20;80.70
5134;DHT22;2585;48.696;10.066;2023-05-13T09:49:28;11.40;88.70
5134;DHT22;2585;48.696;10.066;2023-05-13T09:51:57;11.30;74.80
5134;DHT22;2585;48.696;10.066;2023-05-13T09:54:23;11.30;47.10
5134;DHT22;2585;48.696;10.066;2023-05-13T09:56:57;11.40;71.00
5134;DHT22;2585;48.696;10.066;2023-05-13T09:59:24;11.40;69.80
5134;DHT22;2585;48.696;10.066;2023-05-13T10:01:53;11.30;73.20
5134;DHT22;2585;48.696;10.066;2023-05-13T10:04:20;11.40;65.10
5134;DHT22;2585;48.696;10.066;2023-05-13T10:06:48;11.30;61.60
5134;DHT22;2585;48.696;10.066;2023-05-13T10:09:16;11.40;64.00
5134;DHT22;2585;48.696;10.066;2023-05-13T10:11:45;11.30;71.20
5134;DHT22;2585;48.696;10.066;2023-05-13T10:14:13;11.30;65.40
5134;DHT22;2585;48.696;10.066;2023-05-13T10:16:41;11.40;70.90
5134;DHT22;2585;48.696;10.066;2023-05-13T10:19:09;11.30;56.70
5134;DHT22;2585;48.696;10.066;2023-05-13T10:21:36;11.20;70.20
5134;DHT22;2585;48.696;10.066;2023-05-13T10:24:05;11.20;70.80
5134;DHT22;2585;48.696;10.066;2023-05-13T10:26:33;11.20;70.00
5134;DHT22;2585;48.696;10.066;2023-05-13T10:29:01;11.50;82.20
5134;DHT22;2585;48.696;10.066;2023-05-13T10:31:29;11.60;63.90
5134;DHT22;2585;48.696;10.066;2023-05-13T10:33:57;11.60;42.40
5134;DHT22;2585;48.696;10.066;2023-05-13T10:44:43;11.40;55.10
5134;DHT22;2585;48.696;10.066;2023-05-13T10:47:10;11.50;73.90
5134;DHT22;2585;48.696;10.066;2023-05-13T10:49:37;11.50;65.90
5134;DHT22;2585;48.696;10.066;2023-05-13T10:52:06;11.70;8.70
5134;DHT22;2585;48.696;10.066;2023-05-13T10:54:37;11.70;1.00
5134;DHT22;2585;48.696;10.066;2023-05-13T10:57:06;11.70;1.00
5134;DHT22;2585;48.696;10.066;2023-05-13T10:59:34;11.80;1.00
5134;DHT22;2585;48.696;10.066;2023-05-13T11:02:20;12.00;1.00
5134;DHT22;2585;48.696;10.066;2023-05-13T11:04:57;12.00;1.00
5134;DHT22;2585;48.696;10.066;2023-05-13T11:07:28;11.70;1.00
5134;DHT22;2585;48.696;10.066;2023-05-13T11:09:55;11.80;1.00
5134;DHT22;2585;48.696;10.066;2023-05-13T11:12:21;11.70;1.00
5134;DHT22;2585;48.696;10.066;2023-05-13T11:14:48;11.70;1.00
5134;DHT22;2585;48.696;10.066;2023-05-13T11:17:17;11.70;27.80
5134;DHT22;2585;48.696;10.066;2023-05-13T11:19:47;11.50;1.00
5134;DHT22;2585;48.696;10.066;2023-05-13T11:22:19;11.40;1.00
5134;DHT22;2585;48.696;10.066;2023-05-13T11:27:32;11.50;16.40
5134;DHT22;2585;48.696;10.066;2023-05-13T11:30:06;11.70;67.20
5134;DHT22;2585;48.696;10.066;2023-05-13T11:32:59;11.70;16.40
5134;DHT22;2585;48.696;10.066;2023-05-13T11:35:30;11.70;25.10
5134;DHT22;2585;48.696;10.066;2023-05-13T11:37:59;11.60;1.00
5134;DHT22;2585;48.696;10.066;2023-05-13T11:40:35;11.60;1.00
5134;DHT22;2585;48.696;10.066;2023-05-13T11:43:04;11.60;5.70
5134;DHT22;2585;48.696;10.066;2023-05-13T11:45:31;11.60;1.00
5134;DHT22;2585;48.696;10.066;2023-05-13T11:48:17;11.60;6.20
5134;DHT22;2585;48.696;10.066;2023-05-13T11:50:44;11.70;1.00
5134;DHT22;2585;48.696;10.066;2023-05-13T11:53:18;11.80;1.00
5134;DHT22;2585;48.696;10.066;2023-05-13T11:55:47;11.90;1.00
5134;DHT22;2585;48.696;10.066;2023-05-13T11:58:14;12.10;1.00
5134;DHT22;2585;48.696;10.066;2023-05-13T12:00:41;12.30;1.00
5134;DHT22;2585;48.696;10.066;2023-05-13T12:03:12;12.20;88.70
5134;DHT22;2585;48.696;10.066;2023-05-13T12:05:41;12.20;79.00
5134;DHT22;2585;48.696;10.066;2023-05-13T12:08:10;12.20;81.70
5134;DHT22;2585;48.696;10.066;2023-05-13T12:10:43;12.20;1.00
5134;DHT22;2585;48.696;10.066;2023-05-13T12:13:10;11.90;83.20
5134;DHT22;2585;48.696;10.066;2023-05-13T12:15:38;11.80;74.80
5134;DHT22;2585;48.696;10.066;2023-05-13T12:18:05;11.80;1.00
5134;DHT22;2585;48.696;10.066;2023-05-13T12:20:33;11.70;1.00
5134;DHT22;2585;48.696;10.066;2023-05-13T12:23:00;11.60;1.00
5134;DHT22;2585;48.696;10.066;2023-05-13T12:25:43;11.70;1.00
5134;DHT22;2585;48.696;10.066;2023-05-13T12:28:20;11.60;1.00
5134;DHT22;2585;48.696;10.066;2023-05-13T12:30:51;11.60;1.00
5134;DHT22;2585;48.696;10.066;2023-05-13T12:33:26;11.70;1.00
5134;DHT22;2585;48.696;10.066;2023-05-13T12:36:13;11.60;1.00
5134;DHT22;2585;48.696;10.066;2023-05-13T12:41:23;11.50;1.00
5134;DHT22;2585;48.696;10.066;2023-05-13T12:44:00;11.50;1.00
5134;DHT22;2585;48.696;10.066;2023-05-13T12:46:27;11.50;1.00
5134;DHT22;2585;48.696;10.066;2023-05-13T12:48:56;11.50;1.00
5134;DHT22;2585;48.696;10.066;2023-05-13T12:51:23;11.50;1.00
5134;DHT22;2585;48.696;10.066;2023-05-13T12:53:51;11.50;1.00
5134;DHT22;2585;48.696;10.066;2023-05-13T12:56:20;11.50;1.90
5134;DHT22;2585;48.696;10.066;2023-05-13T12:58:49;11.50;1.00
5134;DHT22;2585;48.696;10.066;2023-05-13T13:01:16;11.60;1.00
5134;DHT22;2585;48.696;10.066;2023-05-13T13:03:44;11.70;1.00
5134;DHT22;2585;48.696;10.066;2023-05-13T13:06:12;11.70;31.60
5134;DHT22;2585;48.696;10.066;2023-05-13T13:08:39;11.70;74.70
5134;DHT22;2585;48.696;10.066;2023-05-13T13:11:06;11.80;81.60
5134;DHT22;2585;48.696;10.066;2023-05-13T13:13:33;12.00;1.00
5134;DHT22;2585;48.696;10.066;2023-05-13T13:16:03;11.90;91.40
5134;DHT22;2585;48.696;10.066;2023-05-13T13:18:30;11.90;92.20
5134;DHT22;2585;48.696;10.066;2023-05-13T13:20:56;11.90;90.20
5134;DHT22;2585;48.696;10.066;2023-05-13T13:23:23;11.80;87.10
5134;DHT22;2585;48.696;10.066;2023-05-13T13:25:50;11.80;1.00
5134;DHT22;2585;48.696;10.066;2023-05-13T13:28:17;11.70;1.00
5134;DHT22;2585;48.696;10.066;2023-05-13T13:30:44;11.70;1.00
5134;DHT22;2585;48.696;10.066;2023-05-13T13:33:14;11.70;1.00
5134;DHT22;2585;48.696;10.066;2023-05-13T13:35:42;11.70;1.00
5134;DHT22;2585;48.696;10.066;2023-05-13T13:38:10;11.90;1.00
5134;DHT22;2585;48.696;10.066;2023-05-13T13:40:36;11.90;1.00
5134;DHT22;2585;48.696;10.066;2023-05-13T13:43:05;11.90;1.00
5134;DHT22;2585;48.696;10.066;2023-05-13T13:45:32;11.90;1.00
5134;DHT22;2585;48.696;10.066;2023-05-13T13:48:00;11.90;1.00
5134;DHT22;2585;48.696;10.066;2023-05-13T13:50:27;11.80;86.30
5134;DHT22;2585;48.696;10.066;2023-05-13T13:52:54;11.80;72.80
5134;DHT22;2585;48.696;10.066;2023-05-13T13:55:22;12.00;88.90
5134;DHT22;2585;48.696;10.066;2023-05-13T13:57:49;12.10;1.00
5134;DHT22;2585;48.696;10.066;2023-05-13T14:00:16;12.10;1.00
5134;DHT22;2585;48.696;10.066;2023-05-13T14:02:43;12.20;84.90
5134;DHT22;2585;48.696;10.066;2023-05-13T14:05:11;12.30;81.90
5134;DHT22;2585;48.696;10.066;2023-05-13T14:07:38;12.40;87.60
5134;DHT22;2585;48.696;10.066;2023-05-13T14:10:06;12.40;1.00
5134;DHT22;2585;48.696;10.066;2023-05-13T14:12:33;12.30;68.30
5134;DHT22;2585;48.696;10.066;2023-05-13T14:15:01;12.20;86.00
5134;DHT22;2585;48.696;10.066;2023-05-13T14:17:28;12.10;78.50
5134;DHT22;2585;48.696;10.066;2023-05-13T14:19:55;12.20;92.50
5134;DHT22;2585;48.696;10.066;2023-05-13T14:22:22;12.30;1.00
5134;DHT22;2585;48.696;10.066;2023-05-13T14:24:50;12.50;1.00
5134;DHT22;2585;48.696;10.066;2023-05-13T14:27:18;12.50;1.00
5134;DHT22;2585;48.696;10.066;2023-05-13T14:29:46;12.60;81.20
5134;DHT22;2585;48.696;10.066;2023-05-13T14:32:13;12.60;71.80
5134;DHT22;2585;48.696;10.066;2023-05-13T14:34:41;12.50;17.00
5134;DHT22;2585;48.696;10.066;2023-05-13T14:37:08;12.40;35.20
5134;DHT22;2585;48.696;10.066;2023-05-13T14:39:34;12.30;52.30
5134;DHT22;2585;48.696;10.066;2023-05-13T14:42:02;12.30;65.00
5134;DHT22;2585;48.696;10.066;2023-05-13T14:44:29;12.20;75.30
5134;DHT22;2585;48.696;10.066;2023-05-13T14:46:56;12.10;85.40
5134;DHT22;2585;48.696;10.066;2023-05-13T14:49:22;12.10;73.70
5134;DHT22;2585;48.696;10.066;2023-05-13T14:51:49;12.10;67.90
5134;DHT22;2585;48.696;10.066;2023-05-13T14:54:16;12.30;78.30
5134;DHT22;2585;48.696;10.066;2023-05-13T14:56:43;12.40;87.40
5134;DHT22;2585;48.696;10.066;2023-05-13T14:59:10;12.70;81.90
5134;DHT22;2585;48.696;10.066;2023-05-13T15:01:37;12.80;1.00
5134;DHT22;2585;48.696;10.066;2023-05-13T15:04:05;12.70;1.00
5134;DHT22;2585;48.696;10.066;2023-05-13T15:06:32;12.70;1.00
5134;DHT22;2585;48.696;10.066;2023-05-13T15:08:59;12.50;1.00
5134;DHT22;2585;48.696;10.066;2023-05-13T15:11:26;12.40;1.00
5134;DHT22;2585;48.696;10.066;2023-05-13T15:13:56;12.40;26.80
5134;DHT22;2585;48.696;10.066;2023-05-13T15:16:23;12.40;1.00
5134;DHT22;2585;48.696;10.066;2023-05-13T15:18:49;12.50;41.20
5134;DHT22;2585;48.696;10.066;2023-05-13T15:21:16;12.60;4.50
5134;DHT22;2585;48.696;10.066;2023-05-13T15:23:43;12.70;1.00
5134;DHT22;2585;48.696;10.066;2023-05-13T15:26:10;12.70;1.00
5134;DHT22;2585;48.696;10.066;2023-05-13T15:28:37;12.80;1.00
5134;DHT22;2585;48.696;10.066;2023-05-13T15:31:04;12.90;20.50
5134;DHT22;2585;48.696;10.066;2023-05-13T15:33:31;13.00;1.00
5134;DHT22;2585;48.696;10.066;2023-05-13T15:35:58;13.00;86.20
5134;DHT22;2585;48.696;10.066;2023-05-13T15:38:26;13.10;90.70
5134;DHT22;2585;48.696;10.066;2023-05-13T15:40:53;13.20;82.60
5134;DHT22;2585;48.696;10.066;2023-05-13T15:43:19;13.30;81.70
5134;DHT22;2585;48.696;10.066;2023-05-13T15:45:46;13.50;54.80
5134;DHT22;2585;48.696;10.066;2023-05-13T15:48:13;13.50;14.70
5134;DHT22;2585;48.696;10.066;2023-05-13T15:50:40;13.60;27.00
5134;DHT22;2585;48.696;10.066;2023-05-13T15:53:07;13.80;1.00
5134;DHT22;2585;48.696;10.066;2023-05-13T15:55:34;13.60;1.00
5134;DHT22;2585;48.696;10.066;2023-05-13T15:58:02;13.50;1.00
5134;DHT22;2585;48.696;10.066;2023-05-13T16:00:29;13.40;1.00
5134;DHT22;2585;48.696;10.066;2023-05-13T16:02:56;13.20;1.00
5134;DHT22;2585;48.696;10.066;2023-05-13T16:05:23;13.10;1.00
5134;DHT22;2585;48.696;10.066;2023-05-13T16:07:50;13.10;1.00
5134;DHT22;2585;48.696;10.066;2023-05-13T16:10:17;13.10;9.20
5134;DHT22;2585;48.696;10.066;2023-05-13T16:12:44;13.10;90.20
5134;DHT22;2585;48.696;10.066;2023-05-13T16:15:11;13.20;12.30
5134;DHT22;2585;48.696;10.066;2023-05-13T16:17:37;13.40;76.10
5134;DHT22;2585;48.696;10.066;2023-05-13T16:20:05;13.40;1.00
5134;DHT22;2585;48.696;10.066;2023-05-13T16:22:34;13.40;1.00